Flight Track Log - Related Links

Times and Time Zones

All times are in EDT time to prevent confusion due to time zone crossing. See the MAL7070 flight status page for this flight to view local times or setup timezone preferences in your user account.

Time Position Orientation Groundspeed Altitude Reporting Facility
EDT Latitude Longitude Course Direction KTS MPH feet Rate Location/Type
Thu 10:15:15 PM 51.1000 -113.7912 244° Southwest  Level FlightAware Approximate
Thu 10:16:21 PM 51.0667 -113.9000 103° East 230 265 8,000  Level Edmonton Center
Thu 10:17:21 PM 51.0500 -113.7833 90° East 280 322 10,700 2,200 Climbing Edmonton Center
Thu 10:18:21 PM 51.0500 -113.6167 90° East 360 414 12,400 2,250 Climbing Edmonton Center
Thu 10:19:21 PM 51.0500 -113.4667 90° East 390 449 15,200 3,000 Climbing Edmonton Center
Thu 10:20:21 PM 51.0500 -113.2667 99° East 400 460 18,400 2,750 Climbing Edmonton Center
Thu 10:21:21 PM 51.0333 -113.1000 90° East 410 472 20,700 2,250 Climbing Edmonton Center
Thu 10:22:21 PM 51.0333 -112.8833 90° East 420 483 22,900 2,050 Climbing Edmonton Center
Thu 10:23:21 PM 51.0333 -112.7000 90° East 440 506 24,800 1,900 Climbing Edmonton Center
Thu 10:24:21 PM 51.0333 -112.5167 90° East 450 518 26,700 1,838 Climbing Edmonton Center
Thu 10:25:12 PM 51.0333 -112.3667 90° East 460 529 28,200 2,000 Climbing Winnipeg Center
Thu 10:26:12 PM 51.0333 -112.1500 98° East 470 541 30,400 2,200 Climbing Winnipeg Center
Thu 10:27:12 PM 51.0167 -111.9667 90° East 460 529 32,600 1,800 Climbing Winnipeg Center
Thu 10:28:12 PM 51.0167 -111.7500 97° East 460 529 34,000 1,350 Climbing Winnipeg Center
Thu 10:29:12 PM 51.0000 -111.5500 97° East 460 529 35,300 1,200 Climbing Winnipeg Center
Thu 10:30:12 PM 50.9833 -111.3333 97° East 470 541 36,400 850 Climbing Winnipeg Center
Thu 10:31:12 PM 50.9667 -111.1333 90° East 480 552 37,000 300 Climbing Winnipeg Center
Thu 10:32:12 PM 50.9667 -110.9167 97° East 480 552 37,000  Level Winnipeg Center
Thu 10:33:12 PM 50.9500 -110.7000 97° East 480 552 37,000  Level Winnipeg Center
Thu 10:34:12 PM 50.9333 -110.5000 96° East 480 552 37,000  Level Winnipeg Center
Thu 10:35:12 PM 50.9167 -110.2667 90° East 480 552 37,000 200 Level Winnipeg Center
Thu 10:36:12 PM 50.9167 -110.0667 97° East 480 552 37,400 800 Climbing Winnipeg Center
Thu 10:37:12 PM 50.9000 -109.8500 90° East 480 552 38,600 1,200 Climbing Winnipeg Center
Thu 10:38:12 PM 50.9000 -109.6333 97° East 490 564 39,800 1,100 Climbing Winnipeg Center
Thu 10:39:12 PM 50.8833 -109.4167 90° East 490 564 40,800 600 Climbing Winnipeg Center
Thu 10:40:12 PM 50.8833 -109.2167 97° East 480 552 41,000 100 Climbing Winnipeg Center
Thu 10:41:12 PM 50.8667 -109.0167 90° East 470 541 41,000  Level Winnipeg Center
Thu 10:42:12 PM 50.8667 -108.8000 90° East 470 541 41,000  Level Winnipeg Center
Thu 10:43:12 PM 50.8667 -108.6167 97° East 470 541 41,000  Level Winnipeg Center
Thu 10:44:12 PM 50.8500 -108.4000 90° East 470 541 41,000  Level Winnipeg Center
Thu 10:45:12 PM 50.8500 -108.1833 97° East 480 552 41,000  Level Winnipeg Center
Thu 10:46:12 PM 50.8333 -107.9667 90° East 480 552 41,000  Level Winnipeg Center
Thu 10:47:12 PM 50.8333 -107.7500 98° East 480 552 41,000  Level Winnipeg Center
Thu 10:48:12 PM 50.8167 -107.5667 96° East 490 564 41,000  Level Winnipeg Center
Thu 10:49:12 PM 50.8000 -107.3167 90° East 490 564 41,000  Level Winnipeg Center
Thu 10:50:12 PM 50.8000 -107.1333 90° East 490 564 41,000  Level Winnipeg Center
Thu 10:51:12 PM 50.8000 -106.8833 106° East 490 564 41,000  Level Winnipeg Center
Thu 10:52:12 PM 50.7667 -106.7000 90° East 490 564 41,000  Level Winnipeg Center
Thu 10:53:12 PM 50.7667 -106.4833 90° East 490 564 41,000  Level Winnipeg Center
Thu 10:54:12 PM 50.7667 -106.2500 97° East 490 564 41,000  Level Winnipeg Center
Thu 10:55:12 PM 50.7500 -106.0500 97° East 490 564 41,000  Level Winnipeg Center
Thu 10:56:12 PM 50.7333 -105.8333 97° East 490 564 41,000  Level Winnipeg Center
Thu 10:57:12 PM 50.7167 -105.6167 90° East 490 564 41,000  Level Winnipeg Center
Thu 10:58:12 PM 50.7167 -105.4167 104° East 490 564 41,000  Level Winnipeg Center
Thu 10:59:12 PM 50.6833 -105.2000 97° East 490 564 41,000  Level Winnipeg Center
Thu 11:00:12 PM 50.6667 -104.9833 90° East 490 564 41,000  Level Winnipeg Center
Thu 11:01:12 PM 50.6667 -104.7667 97° East 490 564 41,000  Level Winnipeg Center
Thu 11:02:12 PM 50.6500 -104.5500 97° East 490 564 41,000  Level Winnipeg Center
Thu 11:03:12 PM 50.6333 -104.3333 97° East 490 564 41,000  Level Winnipeg Center
Thu 11:04:12 PM 50.6167 -104.1167 97° East 490 564 41,000  Level Winnipeg Center
Thu 11:05:12 PM 50.6000 -103.9000 98° East 490 564 41,000  Level Winnipeg Center
Thu 11:06:12 PM 50.5833 -103.7167 96° East 490 564 41,000  Level Winnipeg Center
Thu 11:07:12 PM 50.5667 -103.4833 90° East 490 564 41,000  Level Winnipeg Center
Thu 11:08:12 PM 50.5667 -103.3000 102° East 490 564 41,000  Level Winnipeg Center
Thu 11:09:12 PM 50.5333 -103.0500 97° East 490 564 41,000  Level Winnipeg Center
Thu 11:10:12 PM 50.5167 -102.8333 98° East 490 564 41,000  Level Winnipeg Center
Thu 11:11:12 PM 50.5000 -102.6500 103° East 490 564 41,000  Level Winnipeg Center
Thu 11:12:12 PM 50.4667 -102.4167 90° East 500 575 41,000  Level Winnipeg Center
Thu 11:13:12 PM 50.4667 -102.2000 103° East 500 575 41,000  Level Winnipeg Center
Thu 11:14:12 PM 50.4333 -101.9833 97° East 500 575 41,000  Level Winnipeg Center
Thu 11:15:12 PM 50.4167 -101.7667 103° East 500 575 41,000  Level Winnipeg Center
Thu 11:16:12 PM 50.3833 -101.5333 90° East 500 575 41,000  Level Winnipeg Center
Thu 11:17:12 PM 50.3833 -101.3167 105° East 510 587 41,000  Level Winnipeg Center
Thu 11:18:12 PM 50.3500 -101.1167 97° East 510 587 41,000  Level Winnipeg Center
Thu 11:19:12 PM 50.3333 -100.9000 97° East 510 587 41,000  Level Winnipeg Center
Thu 11:20:12 PM 50.3167 -100.6833 96° East 510 587 41,000 -450 Level Winnipeg Center
Thu 11:21:12 PM 50.3000 -100.4500 97° East 510 587 40,100 -1,850 Descending Winnipeg Center
Thu 11:22:12 PM 50.2833 -100.2333 103° East 520 598 37,300 -3,150 Descending Winnipeg Center
Thu 11:23:12 PM 50.2500 -100.0000 90° East 530 610 33,800 -3,550 Descending Winnipeg Center
Thu 11:24:12 PM 50.2500 -99.7667 102° East 540 621 30,200 -3,500 Descending Winnipeg Center
Thu 11:25:12 PM 50.2167 -99.5333 97° East 540 621 26,800 -3,000 Descending Winnipeg Center
Thu 11:26:12 PM 50.2000 -99.3167 97° East 520 598 24,200 -2,550 Descending Winnipeg Center
Thu 11:27:12 PM 50.1833 -99.1000 97° East 490 564 21,700 -2,350 Descending Winnipeg Center
Thu 11:28:12 PM 50.1667 -98.9000 106° East 460 529 19,500 -2,300 Descending Winnipeg Center
Thu 11:29:12 PM 50.1333 -98.7167 99° East 440 506 17,100 -2,300 Descending Winnipeg Center
Thu 11:30:12 PM 50.1167 -98.5500 98° East 410 472 14,900 -2,300 Descending Winnipeg Center
Thu 11:31:12 PM 50.1000 -98.3667 100° East 390 449 12,500 -2,200 Descending Winnipeg Center
Thu 11:32:12 PM 50.0833 -98.2167 101° East 370 426 10,500 -1,200 Descending Winnipeg Center
Thu 11:33:12 PM 50.0667 -98.0833 90° East 330 380 10,100 -900 Descending Winnipeg Center
Thu 11:34:12 PM 50.0667 -97.9500 90° East 290 334 8,700 -1,350 Descending Winnipeg Center
Thu 11:35:12 PM 50.0667 -97.8500 90° East 270 311 7,400 -1,500 Descending Winnipeg Center
Thu 11:36:12 PM 50.0667 -97.7167 90° East 260 299 5,700 -1,300 Descending Winnipeg Center
Thu 11:37:12 PM 50.0667 -97.6167 90° East 260 299 4,800 -750 Descending Winnipeg Center
Thu 11:38:12 PM 50.0667 -97.5333 105° East 240 276 4,200 -550 Descending Winnipeg Center
Thu 11:39:12 PM 50.0500 -97.4333 147° Southeast 220 253 3,700 -350 Descending Winnipeg Center
Thu 11:40:12 PM 50.0000 -97.3833 136° Southeast 200 230 3,500 -450 Descending Winnipeg Center
Thu 11:41:12 PM 49.9667 -97.3333 128° Southeast 150 173 2,800 -750 Descending Winnipeg Center
Thu 11:42:12 PM 49.9500 -97.3000 162° South 140 161 2,000 -750 Descending Winnipeg Center
Thu 11:43:12 PM 49.9167 -97.2833 136° Southeast 130 150 1,300 -550 Descending Winnipeg Center
Thu 11:44:12 PM 49.8833 -97.2333 136° Southeast 130 150 900 -400 Descending Winnipeg Center

Login

Don't have an account? Register now (free) for customized features, flight alerts, and more!